< < Back
Terminal Aerodrome Forecast


Current Version              Previous Versions:   1  2  3  4  5  6  7  8  9  

Terminal Aerodrome Forecast

512
FTUS42 KTAE 242300
TAFTLH
TAF
KTLH 242320Z 2500/2524 18005KT P6SM FEW060
     FM250200 22003KT P6SM SKC
     FM250600 27003KT 1SM BR BKN003
     FM251300 24007KT P6SM BKN025
     FM251500 25010G15KT P6SM SCT040=

Latest METAR

376
SAUS80 KWBC 250100 RRB
MTRTLH
METAR KTLH 250053Z 18004KT 10SM FEW210 24/15 A2993 RMK AO2 SLP134
T02390150


USA.gov is the U.S. government's official web portal to all federal, state and local government web resources and services.